La Esperanza, Honduras
Current Conditions -  °F | °C
As of 7:58 AM on Thursday 29 Jan 2015 (Local Time) from MHSC Reporting Station
Overcast Overcast  
Wind Chill: 62°   Ceiling: 2900
Heat Index: 62°   Visibility: 6mi
Dew Point: 61°   Wind: 17mph
Humidity: 98%   Direction: 350°N
Pressure: 30.12"   Gusts: NA
Location:  14.31°N, 88.18°W
Report Text: MHSC 291358Z AUTO 35015KT 9999 BKN029 OVC065 17/16 A3012 RMK AO2 DZB10E24RAB24E46DZB46E52 SLP178 P0000 T01660163
Loading
Personal Weather Stations






























Interactive Weather Map New forecast layout! Learn more

10-Day Weather Forecast

Advertisements
Track Severe Weather on mobile